Time;durP1;ratioP1;P1;durP2;ratioP2;P2;SDS_P1;SDS_P2;PMS_P1;PMS_P2;Temp;Humidity;BMP_temperature;BMP_pressure;BME280_temperature;BME280_humidity;BME280_pressure;Samples;Min_cycle;Max_cycle;Signal;HPM_P1;HPM_P2
2023/05/11 00:00:18;;;;;;;;;;;;;;;;;;7363555;19;802;-65
2023/05/11 00:02:47;;;;;;;;;;;;;;;;;;7364070;19;797;-66
2023/05/11 00:05:15;;;;;;;;;;;;;;;;;;7370404;19;1621;-65
2023/05/11 00:07:43;;;;;;;;;;;;;;;;;;7370555;19;1846;-66
2023/05/11 00:10:11;;;;;;;;;;;;;;;;;;7370466;19;967;-65
2023/05/11 00:12:39;;;;;;;;;;;;;;;;;;7372702;19;2015;-65
2023/05/11 00:15:07;;;;;;;;;;;;;;;;;;7369990;19;1306;-65
2023/05/11 00:17:36;;;;;;;;;;;;;;;;;;7371703;19;782;-65
2023/05/11 00:20:04;;;;;;;;;;;;;;;;;;7370844;19;811;-64
2023/05/11 00:22:32;;;;;;;;;;;;;;;;;;7372608;19;1476;-66
2023/05/11 00:25:00;;;;;;;;;;;;;;;;;;7370079;19;1888;-65
2023/05/11 00:27:28;;;;;;;;;;;;;;;;;;7370235;19;1843;-68
2023/05/11 00:29:57;;;;;;;;;;;;;;;;;;7368630;19;831;-64
2023/05/11 00:32:25;;;;;;;;;;;;;;;;;;7368866;19;811;-64
2023/05/11 00:34:53;;;;;;;;;;;;;;;;;;7368458;19;1314;-67
2023/05/11 00:37:21;;;;;;;;;;;;;;;;;;7369809;19;830;-67
2023/05/11 00:39:49;;;;;;;;;;;;;;;;;;7368091;19;811;-68
2023/05/11 00:42:17;;;;;;;;;;;;;;;;;;7370190;19;740;-66
2023/05/11 00:44:46;;;;;;;;;;;;;;;;;;7369428;19;2048;-67
2023/05/11 00:47:14;;;;;;;;;;;;;;;;;;7368791;19;767;-65
2023/05/11 00:49:42;;;;;;;;;;;;;;;;;;7367691;19;2048;-65
2023/05/11 00:52:11;;;;;;;;;;;;;;;;;;7370210;19;751;-67
2023/05/11 00:54:39;;;;;;;;;;;;;;;;;;7367976;19;1274;-67
2023/05/11 00:57:07;;;;;;;;;;;;;;;;;;7374393;19;1756;-66
2023/05/11 00:59:35;;;;;;;;;;;;;;;;;;7367469;19;783;-66
2023/05/11 01:02:03;;;;;;;;;;;;;;;;;;7369475;19;851;-65
2023/05/11 01:04:32;;;;;;;;;;;;;;;;;;7368223;19;1218;-66
2023/05/11 01:07:00;;;;;;;;;;;;;;;;;;7372160;19;1788;-67
2023/05/11 01:09:28;;;;;;;;;;;;;;;;;;7366031;19;1845;-66
2023/05/11 01:11:58;;;;;;;;;;;;;;;;;;7368848;19;858;-66
2023/05/11 01:14:28;;;;;;;;;;;;;;;;;;7364961;19;1302;-67
2023/05/11 01:16:57;;;;;;;;;;;;;;;;;;7369497;19;1823;-66
2023/05/11 01:19:25;;;;;;;;;;;;;;;;;;7366329;19;1814;-70
2023/05/11 01:21:53;;;;;;;;;;;;;;;;;;7368046;19;764;-68
2023/05/11 01:24:21;;;;;;;;;;;;;;;;;;7367692;19;1279;-66
2023/05/11 01:26:49;;;;;;;;;;;;;;;;;;7371188;19;1866;-66
2023/05/11 01:29:20;;;;;;;;;;;;;;;;;;7364996;19;1856;-66
2023/05/11 01:31:48;;;;;;;;;;;;;;;;;;7367547;19;1085;-66
2023/05/11 01:34:16;;;;;;;;;;;;;;;;;;7371744;19;2017;-66
2023/05/11 01:36:46;;;;;;;;;;;;;;;;;;7371154;19;2043;-65
2023/05/11 01:39:14;;;;;;;;;;;;;;;;;;7366433;19;854;-64
2023/05/11 01:41:43;;;;;;;;;;;;;;;;;;7367286;19;810;-63
2023/05/11 01:44:11;;;;;;;;;;;;;;;;;;7366895;19;1290;-63
2023/05/11 01:46:39;;;;;;;;;;;;;;;;;;7372239;19;1776;-64
2023/05/11 01:49:08;;;;;;;;;;;;;;;;;;7367699;19;2025;-64
2023/05/11 01:51:36;;;;;;;;;;;;;;;;;;7366738;19;783;-66
2023/05/11 01:54:04;;;;;;;;;;;;;;;;;;7367322;19;881;-66
2023/05/11 01:56:33;;;;;;;;;;;;;;;;;;7367503;19;1635;-65
2023/05/11 01:59:01;;;;;;;;;;;;;;;;;;7366280;19;817;-66
2023/05/11 02:01:29;;;;;;;;;;;;;;;;;;7368235;19;1780;-66
2023/05/11 02:03:57;;;;;;;;;;;;;;;;;;7367747;19;862;-65
2023/05/11 02:06:25;;;;;;;;;;;;;;;;;;7367165;19;1647;-70
2023/05/11 02:08:54;;;;;;;;;;;;;;;;;;7364649;19;1862;-67
2023/05/11 02:11:22;;;;;;;;;;;;;;;;;;7366263;19;843;-68
2023/05/11 02:13:50;;;;;;;;;;;;;;;;;;7365902;19;845;-67
2023/05/11 02:16:18;;;;;;;;;;;;;;;;;;7367236;19;1878;-67
2023/05/11 02:18:46;;;;;;;;;;;;;;;;;;7365599;19;866;-68
2023/05/11 02:21:14;;;;;;;;;;;;;;;;;;7365567;19;831;-66
2023/05/11 02:23:42;;;;;;;;;;;;;;;;;;7365525;19;769;-67
2023/05/11 02:26:11;;;;;;;;;;;;;;;;;;7367482;19;1794;-67
2023/05/11 02:28:40;;;;;;;;;;;;;;;;;;7364599;19;1852;-66
2023/05/11 02:31:08;;;;;;;;;;;;;;;;;;7365449;19;969;-66
2023/05/11 02:33:36;;;;;;;;;;;;;;;;;;7365642;19;763;-66
2023/05/11 02:36:04;;;;;;;;;;;;;;;;;;7365637;19;1829;-67
2023/05/11 02:38:34;;;;;;;;;;;;;;;;;;7364754;19;896;-66
2023/05/11 02:41:04;;;;;;;;;;;;;;;;;;7365351;19;775;-65
2023/05/11 02:43:32;;;;;;;;;;;;;;;;;;7368830;19;1686;-69
2023/05/11 02:46:03;;;;;;;;;;;;;;;;;;7365255;19;1806;-66
2023/05/11 02:48:31;;;;;;;;;;;;;;;;;;7364761;19;1854;-67
2023/05/11 02:51:01;;;;;;;;;;;;;;;;;;7365778;19;874;-67
2023/05/11 02:53:33;;;;;;;;;;;;;;;;;;7364819;19;1282;-67
2023/05/11 02:56:02;;;;;;;;;;;;;;;;;;7363486;19;1615;-65
2023/05/11 02:58:32;;;;;;;;;;;;;;;;;;7369621;19;1603;-66
2023/05/11 03:01:13;;;;;;;;;;;;;;;;;;7367412;19;929;-66
2023/05/11 03:03:41;;;;;;;;;;;;;;;;;;7362667;19;1113;-68
2023/05/11 03:06:09;;;;;;;;;;;;;;;;;;7361426;19;1928;-70
2023/05/11 03:08:37;;;;;;;;;;;;;;;;;;7362789;19;1845;-67
2023/05/11 03:11:06;;;;;;;;;;;;;;;;;;7361724;19;2007;-68
2023/05/11 03:13:34;;;;;;;;;;;;;;;;;;7364701;19;856;-67
2023/05/11 03:16:04;;;;;;;;;;;;;;;;;;7361960;19;1811;-67
2023/05/11 03:18:33;;;;;;;;;;;;;;;;;;7364087;19;850;-67
2023/05/11 03:21:01;;;;;;;;;;;;;;;;;;7363358;19;934;-67
2023/05/11 03:23:30;;;;;;;;;;;;;;;;;;7364913;19;861;-69
2023/05/11 03:25:58;;;;;;;;;;;;;;;;;;7364009;19;1631;-68
2023/05/11 03:28:26;;;;;;;;;;;;;;;;;;7365348;19;1838;-67
2023/05/11 03:31:02;;;;;;;;;;;;;;;;;;7377806;19;735;-69
2023/05/11 03:33:32;;;;;;;;;;;;;;;;;;7373049;19;934;-69
2023/05/11 03:36:01;;;;;;;;;;;;;;;;;;7368833;19;1437;-67
2023/05/11 03:38:30;;;;;;;;;;;;;;;;;;7365635;19;846;-68
2023/05/11 03:40:59;;;;;;;;;;;;;;;;;;7363615;19;772;-67
2023/05/11 03:43:27;;;;;;;;;;;;;;;;;;7367007;19;1878;-66
2023/05/11 03:45:56;;;;;;;;;;;;;;;;;;7364148;19;1449;-67
2023/05/11 03:48:26;;;;;;;;;;;;;;;;;;7362715;19;1845;-67
2023/05/11 03:50:54;;;;;;;;;;;;;;;;;;7363951;19;852;-65
2023/05/11 03:53:22;;;;;;;;;;;;;;;;;;7364391;19;782;-66
2023/05/11 03:55:51;;;;;;;;;;;;;;;;;;7362606;19;1860;-66
2023/05/11 03:58:19;;;;;;;;;;;;;;;;;;7367046;19;1799;-65
2023/05/11 04:00:47;;;;;;;;;;;;;;;;;;7368040;19;1766;-65
2023/05/11 04:03:16;;;;;;;;;;;;;;;;;;7365366;19;2156;-66
2023/05/11 04:05:44;;;;;;;;;;;;;;;;;;7364463;19;1831;-65
2023/05/11 04:08:14;;;;;;;;;;;;;;;;;;7362216;19;781;-65
2023/05/11 04:10:42;;;;;;;;;;;;;;;;;;7360872;19;1861;-65
2023/05/11 04:13:10;;;;;;;;;;;;;;;;;;7363832;19;808;-65
2023/05/11 04:15:38;;;;;;;;;;;;;;;;;;7364398;19;1847;-65
2023/05/11 04:18:06;;;;;;;;;;;;;;;;;;7363395;19;786;-65
2023/05/11 04:20:35;;;;;;;;;;;;;;;;;;7362436;19;787;-66
2023/05/11 04:23:03;;;;;;;;;;;;;;;;;;7361713;19;976;-65
2023/05/11 04:25:32;;;;;;;;;;;;;;;;;;7363318;19;1707;-65
2023/05/11 04:28:00;;;;;;;;;;;;;;;;;;7362842;19;862;-65
2023/05/11 04:30:28;;;;;;;;;;;;;;;;;;7359317;19;1852;-65
2023/05/11 04:32:57;;;;;;;;;;;;;;;;;;7361547;19;894;-67
2023/05/11 04:35:26;;;;;;;;;;;;;;;;;;7361373;19;1650;-65
2023/05/11 04:37:54;;;;;;;;;;;;;;;;;;7361643;19;835;-64
2023/05/11 04:40:22;;;;;;;;;;;;;;;;;;7361261;19;1008;-65
2023/05/11 04:42:50;;;;;;;;;;;;;;;;;;7365975;19;1798;-64
2023/05/11 04:45:20;;;;;;;;;;;;;;;;;;7360431;19;1881;-67
2023/05/11 04:47:48;;;;;;;;;;;;;;;;;;7361572;19;930;-66
2023/05/11 04:50:16;;;;;;;;;;;;;;;;;;7359416;19;1861;-65
2023/05/11 04:52:44;;;;;;;;;;;;;;;;;;7368082;19;751;-65
2023/05/11 04:55:12;;;;;;;;;;;;;;;;;;7367580;19;1836;-63
2023/05/11 04:57:41;;;;;;;;;;;;;;;;;;7367463;19;1047;-65
2023/05/11 05:00:09;;;;;;;;;;;;;;;;;;7371266;19;2048;-65
2023/05/11 05:02:37;;;;;;;;;;;;;;;;;;7373570;19;1715;-64
2023/05/11 05:05:05;;;;;;;;;;;;;;;;;;7367026;19;1803;-63
2023/05/11 05:07:33;;;;;;;;;;;;;;;;;;7371048;19;1806;-63
2023/05/11 05:10:02;;;;;;;;;;;;;;;;;;7367754;19;1845;-63
2023/05/11 05:12:30;;;;;;;;;;;;;;;;;;7368047;19;810;-66
2023/05/11 05:14:59;;;;;;;;;;;;;;;;;;7367192;19;1392;-65
2023/05/11 05:17:27;;;;;;;;;;;;;;;;;;7370055;19;1822;-66
2023/05/11 05:19:56;;;;;;;;;;;;;;;;;;7367227;19;780;-64
2023/05/11 05:22:25;;;;;;;;;;;;;;;;;;7369514;19;789;-65
2023/05/11 05:24:53;;;;;;;;;;;;;;;;;;7368480;19;1751;-67
2023/05/11 05:27:21;;;;;;;;;;;;;;;;;;7367576;19;887;-66
2023/05/11 05:29:50;;;;;;;;;;;;;;;;;;7365188;19;1849;-66
2023/05/11 05:32:18;;;;;;;;;;;;;;;;;;7369418;19;1728;-66
2023/05/11 05:34:47;;;;;;;;;;;;;;;;;;7367290;19;1362;-66
2023/05/11 05:37:16;;;;;;;;;;;;;;;;;;7367381;19;855;-67
2023/05/11 05:39:44;;;;;;;;;;;;;;;;;;7368879;19;1486;-67
2023/05/11 05:42:12;;;;;;;;;;;;;;;;;;7372194;19;1837;-66
2023/05/11 05:44:40;;;;;;;;;;;;;;;;;;7367923;19;1263;-67
2023/05/11 05:47:08;;;;;;;;;;;;;;;;;;7370671;19;1798;-67
2023/05/11 05:49:37;;;;;;;;;;;;;;;;;;7365981;19;1845;-69
2023/05/11 05:52:07;;;;;;;;;;;;;;;;;;7365822;19;980;-67
2023/05/11 05:54:35;;;;;;;;;;;;;;;;;;7369487;19;1602;-67
2023/05/11 05:57:03;;;;;;;;;;;;;;;;;;7366636;19;779;-66
2023/05/11 05:59:31;;;;;;;;;;;;;;;;;;7366608;19;1015;-66
2023/05/11 06:02:00;;;;;;;;;;;;;;;;;;7368377;19;783;-69
2023/05/11 06:04:29;;;;;;;;;;;;;;;;;;7370161;19;1968;-67
2023/05/11 06:06:57;;;;;;;;;;;;;;;;;;7365999;19;721;-66
2023/05/11 06:09:25;;;;;;;;;;;;;;;;;;7368881;19;1861;-66
2023/05/11 06:11:54;;;;;;;;;;;;;;;;;;7367658;19;830;-66
2023/05/11 06:14:24;;;;;;;;;;;;;;;;;;7366138;19;1372;-66
2023/05/11 06:16:52;;;;;;;;;;;;;;;;;;7366603;19;2084;-67
2023/05/11 06:19:22;;;;;;;;;;;;;;;;;;7365542;19;803;-69
2023/05/11 06:21:51;;;;;;;;;;;;;;;;;;7368608;19;1763;-67
2023/05/11 06:24:19;;;;;;;;;;;;;;;;;;7361647;19;1361;-68
2023/05/11 06:26:48;;;;;;;;;;;;;;;;;;7366812;19;806;-66
2023/05/11 06:29:18;;;;;;;;;;;;;;;;;;7365313;19;1857;-68
2023/05/11 06:31:51;;;;;;;;;;;;;;;;;;7365007;19;769;-70
2023/05/11 06:34:19;;;;;;;;;;;;;;;;;;7364695;19;1251;-67
2023/05/11 06:36:47;;;;;;;;;;;;;;;;;;7365741;19;815;-66
2023/05/11 06:39:15;;;;;;;;;;;;;;;;;;7364755;19;818;-67
2023/05/11 06:41:44;;;;;;;;;;;;;;;;;;7365747;19;745;-66
2023/05/11 06:44:12;;;;;;;;;;;;;;;;;;7366952;19;2091;-66
2023/05/11 06:46:44;;;;;;;;;;;;;;;;;;7367601;19;1433;-66
2023/05/11 06:49:12;;;;;;;;;;;;;;;;;;7365078;19;823;-66
2023/05/11 06:51:40;;;;;;;;;;;;;;;;;;7362449;19;1880;-65
2023/05/11 06:54:09;;;;;;;;;;;;;;;;;;7366916;19;803;-65
2023/05/11 06:56:38;;;;;;;;;;;;;;;;;;7365570;19;1448;-65
2023/05/11 06:59:06;;;;;;;;;;;;;;;;;;7363927;19;815;-64
2023/05/11 07:01:34;;;;;;;;;;;;;;;;;;7366011;19;853;-64
2023/05/11 07:04:03;;;;;;;;;;;;;;;;;;7366169;19;834;-64
2023/05/11 07:06:32;;;;;;;;;;;;;;;;;;7365816;19;2050;-64
2023/05/11 07:09:00;;;;;;;;;;;;;;;;;;7365425;19;797;-64
2023/05/11 07:11:28;;;;;;;;;;;;;;;;;;7363158;19;1838;-67
2023/05/11 07:13:56;;;;;;;;;;;;;;;;;;7364045;19;2054;-65
2023/05/11 07:16:24;;;;;;;;;;;;;;;;;;7364672;19;2102;-66
2023/05/11 07:18:52;;;;;;;;;;;;;;;;;;7365438;19;1792;-63
2023/05/11 07:21:21;;;;;;;;;;;;;;;;;;7368662;19;1770;-64
2023/05/11 07:23:49;;;;;;;;;;;;;;;;;;7370198;19;1869;-64
2023/05/11 07:26:17;;;;;;;;;;;;;;;;;;7361706;19;1287;-64
2023/05/11 07:28:45;;;;;;;;;;;;;;;;;;7364346;19;865;-64
2023/05/11 07:31:13;;;;;;;;;;;;;;;;;;7364741;19;1856;-64
2023/05/11 07:33:41;;;;;;;;;;;;;;;;;;7367813;19;1750;-64
2023/05/11 07:36:09;;;;;;;;;;;;;;;;;;7360797;19;1231;-62
2023/05/11 07:38:38;;;;;;;;;;;;;;;;;;7363849;19;825;-63
2023/05/11 07:41:06;;;;;;;;;;;;;;;;;;7366442;19;1778;-62
2023/05/11 07:43:34;;;;;;;;;;;;;;;;;;7364346;19;861;-62
2023/05/11 07:46:03;;;;;;;;;;;;;;;;;;7362272;19;1277;-61
2023/05/11 07:48:31;;;;;;;;;;;;;;;;;;7363313;19;813;-63
2023/05/11 07:51:00;;;;;;;;;;;;;;;;;;7364117;19;2194;-62
2023/05/11 07:53:28;;;;;;;;;;;;;;;;;;7363966;19;855;-62
2023/05/11 07:55:58;;;;;;;;;;;;;;;;;;7361797;19;1273;-63
2023/05/11 07:58:26;;;;;;;;;;;;;;;;;;7363871;19;848;-64
2023/05/11 08:00:54;;;;;;;;;;;;;;;;;;7365221;19;1771;-63
2023/05/11 08:03:22;;;;;;;;;;;;;;;;;;7364825;19;802;-64
2023/05/11 08:05:50;;;;;;;;;;;;;;;;;;7363132;19;1885;-64
2023/05/11 08:08:19;;;;;;;;;;;;;;;;;;7365796;19;1768;-65
2023/05/11 08:10:47;;;;;;;;;;;;;;;;;;7361911;19;1857;-65
2023/05/11 08:13:15;;;;;;;;;;;;;;;;;;7363979;19;891;-64
2023/05/11 08:15:43;;;;;;;;;;;;;;;;;;7361523;19;1333;-63
2023/05/11 08:18:12;;;;;;;;;;;;;;;;;;7364012;19;1756;-66
2023/05/11 08:20:41;;;;;;;;;;;;;;;;;;7363176;19;819;-68
2023/05/11 08:23:09;;;;;;;;;;;;;;;;;;7363964;19;1541;-66
2023/05/11 08:25:37;;;;;;;;;;;;;;;;;;7366008;19;1360;-69
2023/05/11 08:28:06;;;;;;;;;;;;;;;;;;7369517;19;815;-67
2023/05/11 08:30:34;;;;;;;;;;;;;;;;;;7371088;19;1814;-66
2023/05/11 08:33:02;;;;;;;;;;;;;;;;;;7369846;19;1827;-69
2023/05/11 08:35:31;;;;;;;;;;;;;;;;;;7370470;19;1838;-68
2023/05/11 08:37:59;;;;;;;;;;;;;;;;;;7368923;19;782;-67
2023/05/11 08:40:27;;;;;;;;;;;;;;;;;;7370439;19;808;-68
2023/05/11 08:42:55;;;;;;;;;;;;;;;;;;7370113;19;815;-68
2023/05/11 08:45:23;;;;;;;;;;;;;;;;;;7369678;19;1573;-68
2023/05/11 08:47:51;;;;;;;;;;;;;;;;;;7372765;19;1432;-67
2023/05/11 08:50:20;;;;;;;;;;;;;;;;;;7369096;19;1845;-69
2023/05/11 08:52:48;;;;;;;;;;;;;;;;;;7369382;19;811;-68
2023/05/11 08:55:16;;;;;;;;;;;;;;;;;;7369031;19;1353;-69
2023/05/11 08:57:44;;;;;;;;;;;;;;;;;;7368785;19;771;-69
2023/05/11 09:00:12;;;;;;;;;;;;;;;;;;7369569;19;864;-69
2023/05/11 09:02:40;;;;;;;;;;;;;;;;;;7369110;19;853;-71
2023/05/11 09:05:08;;;;;;;;;;;;;;;;;;7368526;19;1337;-69
2023/05/11 09:07:37;;;;;;;;;;;;;;;;;;7368979;19;782;-72
2023/05/11 09:10:05;;;;;;;;;;;;;;;;;;7369537;19;1869;-70
2023/05/11 09:12:33;;;;;;;;;;;;;;;;;;7369440;19;842;-70
2023/05/11 09:15:02;;;;;;;;;;;;;;;;;;7368692;19;1278;-71
2023/05/11 09:17:30;;;;;;;;;;;;;;;;;;7367969;19;778;-71
2023/05/11 09:19:58;;;;;;;;;;;;;;;;;;7369332;19;835;-69
2023/05/11 09:22:26;;;;;;;;;;;;;;;;;;7368804;19;776;-70
2023/05/11 09:24:55;;;;;;;;;;;;;;;;;;7368807;19;1278;-70
2023/05/11 09:27:23;;;;;;;;;;;;;;;;;;7369260;19;826;-70
2023/05/11 09:29:51;;;;;;;;;;;;;;;;;;7367603;19;787;-73
2023/05/11 09:32:19;;;;;;;;;;;;;;;;;;7366256;19;1853;-70
2023/05/11 09:34:47;;;;;;;;;;;;;;;;;;7368238;19;1321;-71
2023/05/11 09:37:16;;;;;;;;;;;;;;;;;;7366938;19;882;-71
2023/05/11 09:39:44;;;;;;;;;;;;;;;;;;7368160;19;831;-70
2023/05/11 09:42:12;;;;;;;;;;;;;;;;;;7368585;19;811;-73
2023/05/11 09:44:40;;;;;;;;;;;;;;;;;;7368230;19;1351;-72
2023/05/11 09:47:08;;;;;;;;;;;;;;;;;;7368528;19;802;-71
2023/05/11 09:49:37;;;;;;;;;;;;;;;;;;7367983;19;878;-72
2023/05/11 09:52:05;;;;;;;;;;;;;;;;;;7365648;19;1849;-71
2023/05/11 09:54:33;;;;;;;;;;;;;;;;;;7367711;19;1278;-72
2023/05/11 09:57:01;;;;;;;;;;;;;;;;;;7367656;19;794;-72
2023/05/11 09:59:29;;;;;;;;;;;;;;;;;;7366699;19;791;-73
2023/05/11 10:01:57;;;;;;;;;;;;;;;;;;7367740;19;839;-70
2023/05/11 10:04:25;;;;;;;;;;;;;;;;;;7368114;19;1335;-69
2023/05/11 10:06:54;;;;;;;;;;;;;;;;;;7367422;19;716;-70
2023/05/11 10:09:22;;;;;;;;;;;;;;;;;;7367059;19;874;-69
2023/05/11 10:11:50;;;;;;;;;;;;;;;;;;7366400;19;1843;-69
2023/05/11 10:14:18;;;;;;;;;;;;;;;;;;7367156;19;1256;-72
2023/05/11 10:16:46;;;;;;;;;;;;;;;;;;7366965;19;808;-69
2023/05/11 10:19:14;;;;;;;;;;;;;;;;;;7366790;19;824;-69
2023/05/11 10:21:43;;;;;;;;;;;;;;;;;;7367281;19;837;-69
2023/05/11 10:24:12;;;;;;;;;;;;;;;;;;7365836;19;871;-71
2023/05/11 10:26:41;;;;;;;;;;;;;;;;;;7366966;19;735;-70
2023/05/11 10:29:09;;;;;;;;;;;;;;;;;;7365663;19;842;-70
2023/05/11 10:31:37;;;;;;;;;;;;;;;;;;7365116;19;1845;-69
2023/05/11 10:34:05;;;;;;;;;;;;;;;;;;7366690;19;874;-69
2023/05/11 10:36:33;;;;;;;;;;;;;;;;;;7363343;19;1265;-71
2023/05/11 10:39:02;;;;;;;;;;;;;;;;;;7365842;19;880;-72
2023/05/11 10:41:30;;;;;;;;;;;;;;;;;;7366365;19;888;-70
2023/05/11 10:43:58;;;;;;;;;;;;;;;;;;7366336;19;805;-70
2023/05/11 10:46:27;;;;;;;;;;;;;;;;;;7361619;19;1385;-69
2023/05/11 10:48:55;;;;;;;;;;;;;;;;;;7363646;19;838;-70
2023/05/11 10:51:23;;;;;;;;;;;;;;;;;;7364197;19;1857;-69
2023/05/11 10:53:51;;;;;;;;;;;;;;;;;;7365425;19;819;-70
2023/05/11 10:56:19;;;;;;;;;;;;;;;;;;7363166;19;1257;-69
2023/05/11 10:58:47;;;;;;;;;;;;;;;;;;7365587;19;807;-69
2023/05/11 11:01:16;;;;;;;;;;;;;;;;;;7365650;19;880;-69
2023/05/11 11:03:44;;;;;;;;;;;;;;;;;;7365587;19;901;-69
2023/05/11 11:06:12;;;;;;;;;;;;;;;;;;7362812;19;1254;-69
2023/05/11 11:08:40;;;;;;;;;;;;;;;;;;7364682;19;827;-70
2023/05/11 11:11:08;;;;;;;;;;;;;;;;;;7363396;19;1861;-70
2023/05/11 11:13:36;;;;;;;;;;;;;;;;;;7365318;19;816;-70
2023/05/11 11:16:04;;;;;;;;;;;;;;;;;;7363074;19;1243;-69
2023/05/11 11:18:33;;;;;;;;;;;;;;;;;;7364844;19;784;-69
2023/05/11 11:21:01;;;;;;;;;;;;;;;;;;7365762;19;1597;-70
2023/05/11 11:23:29;;;;;;;;;;;;;;;;;;7371185;19;1794;-67
2023/05/11 11:25:57;;;;;;;;;;;;;;;;;;7363312;19;1360;-69
2023/05/11 11:28:27;;;;;;;;;;;;;;;;;;7366711;19;1429;-69
2023/05/11 11:30:55;;;;;;;;;;;;;;;;;;7364739;19;1830;-70
2023/05/11 11:33:23;;;;;;;;;;;;;;;;;;7365929;19;859;-69
2023/05/11 11:35:51;;;;;;;;;;;;;;;;;;7366218;19;1846;-68
2023/05/11 11:38:20;;;;;;;;;;;;;;;;;;7365901;19;2059;-68
2023/05/11 11:40:50;;;;;;;;;;;;;;;;;;7367320;19;1797;-68
2023/05/11 11:43:19;;;;;;;;;;;;;;;;;;7369595;19;1940;-68
2023/05/11 11:45:47;;;;;;;;;;;;;;;;;;7366130;19;1806;-66
2023/05/11 11:48:15;;;;;;;;;;;;;;;;;;7368693;19;1824;-63
2023/05/11 11:50:43;;;;;;;;;;;;;;;;;;7367005;19;1683;-64
2023/05/11 11:53:11;;;;;;;;;;;;;;;;;;7363967;19;1850;-65
2023/05/11 11:55:40;;;;;;;;;;;;;;;;;;7362253;19;1273;-65
2023/05/11 11:58:08;;;;;;;;;;;;;;;;;;7363826;19;822;-64
2023/05/11 12:00:36;;;;;;;;;;;;;;;;;;7366560;19;877;-62
2023/05/11 12:03:04;;;;;;;;;;;;;;;;;;7370991;19;870;-62
2023/05/11 12:05:33;;;;;;;;;;;;;;;;;;7369049;19;1271;-62
2023/05/11 12:08:01;;;;;;;;;;;;;;;;;;7370455;19;898;-61
2023/05/11 12:10:29;;;;;;;;;;;;;;;;;;7370857;19;811;-63
2023/05/11 12:12:58;;;;;;;;;;;;;;;;;;7368845;19;1850;-61
2023/05/11 12:15:26;;;;;;;;;;;;;;;;;;7369795;19;1362;-64
2023/05/11 12:17:54;;;;;;;;;;;;;;;;;;7369798;19;781;-63
2023/05/11 12:20:22;;;;;;;;;;;;;;;;;;7370836;19;794;-63
2023/05/11 12:22:50;;;;;;;;;;;;;;;;;;7370486;19;849;-64
2023/05/11 12:25:18;;;;;;;;;;;;;;;;;;7369130;19;1286;-65
2023/05/11 12:27:47;;;;;;;;;;;;;;;;;;7369606;19;833;-64
2023/05/11 12:30:15;;;;;;;;;;;;;;;;;;7370011;19;883;-66
2023/05/11 12:32:43;;;;;;;;;;;;;;;;;;7368664;19;1841;-65
2023/05/11 12:35:12;;;;;;;;;;;;;;;;;;7369495;19;1274;-66
2023/05/11 12:37:40;;;;;;;;;;;;;;;;;;7369568;19;862;-66
2023/05/11 12:40:08;;;;;;;;;;;;;;;;;;7370288;19;861;-65
2023/05/11 12:42:36;;;;;;;;;;;;;;;;;;7369354;19;803;-67
2023/05/11 12:45:04;;;;;;;;;;;;;;;;;;7368461;19;1330;-66
2023/05/11 12:47:32;;;;;;;;;;;;;;;;;;7369932;19;866;-66
2023/05/11 12:50:00;;;;;;;;;;;;;;;;;;7369587;19;811;-66
2023/05/11 12:52:28;;;;;;;;;;;;;;;;;;7368078;19;1845;-67
2023/05/11 12:54:58;;;;;;;;;;;;;;;;;;7368317;19;1285;-66
2023/05/11 12:57:26;;;;;;;;;;;;;;;;;;7369224;19;871;-68
2023/05/11 12:59:54;;;;;;;;;;;;;;;;;;7368960;19;857;-66
2023/05/11 13:02:22;;;;;;;;;;;;;;;;;;7369166;19;859;-67
2023/05/11 13:04:50;;;;;;;;;;;;;;;;;;7366877;19;1314;-67
2023/05/11 13:07:18;;;;;;;;;;;;;;;;;;7368874;19;815;-68
2023/05/11 13:09:47;;;;;;;;;;;;;;;;;;7368318;19;842;-66
2023/05/11 13:12:15;;;;;;;;;;;;;;;;;;7364121;19;1853;-65
2023/05/11 13:14:44;;;;;;;;;;;;;;;;;;7368473;19;1286;-66
2023/05/11 13:17:12;;;;;;;;;;;;;;;;;;7368745;19;894;-66
2023/05/11 13:19:40;;;;;;;;;;;;;;;;;;7367608;19;868;-69
2023/05/11 13:22:08;;;;;;;;;;;;;;;;;;7368346;19;863;-66
2023/05/11 13:24:37;;;;;;;;;;;;;;;;;;7367404;19;1278;-66
2023/05/11 13:27:05;;;;;;;;;;;;;;;;;;7367747;19;849;-66
2023/05/11 13:29:33;;;;;;;;;;;;;;;;;;7367596;19;846;-65
2023/05/11 13:32:01;;;;;;;;;;;;;;;;;;7367625;19;1841;-67
2023/05/11 13:34:29;;;;;;;;;;;;;;;;;;7367861;19;1298;-64
2023/05/11 13:36:57;;;;;;;;;;;;;;;;;;7367693;19;822;-64
2023/05/11 13:39:25;;;;;;;;;;;;;;;;;;7366839;19;790;-64
2023/05/11 13:41:53;;;;;;;;;;;;;;;;;;7368034;19;846;-64
2023/05/11 13:44:22;;;;;;;;;;;;;;;;;;7367929;19;1330;-63
2023/05/11 13:46:50;;;;;;;;;;;;;;;;;;7366650;19;829;-64
2023/05/11 13:49:18;;;;;;;;;;;;;;;;;;7367493;19;822;-63
2023/05/11 13:51:46;;;;;;;;;;;;;;;;;;7367538;19;1837;-64
2023/05/11 13:54:14;;;;;;;;;;;;;;;;;;7367994;19;1803;-64
2023/05/11 13:56:42;;;;;;;;;;;;;;;;;;7370470;19;1779;-62
2023/05/11 13:59:10;;;;;;;;;;;;;;;;;;7366861;19;852;-64
2023/05/11 14:01:39;;;;;;;;;;;;;;;;;;7370310;19;1792;-61
2023/05/11 14:04:07;;;;;;;;;;;;;;;;;;7371096;19;1761;-63
2023/05/11 14:06:35;;;;;;;;;;;;;;;;;;7365148;19;1230;-63
2023/05/11 14:09:03;;;;;;;;;;;;;;;;;;7367738;19;852;-63
2023/05/11 14:11:31;;;;;;;;;;;;;;;;;;7372089;19;1842;-64
2023/05/11 14:14:00;;;;;;;;;;;;;;;;;;7367347;19;833;-64
2023/05/11 14:16:28;;;;;;;;;;;;;;;;;;7367262;19;1774;-64
2023/05/11 14:18:56;;;;;;;;;;;;;;;;;;7366272;19;741;-64
2023/05/11 14:21:24;;;;;;;;;;;;;;;;;;7369680;19;1760;-63
2023/05/11 14:23:53;;;;;;;;;;;;;;;;;;7366394;19;752;-64
2023/05/11 14:26:21;;;;;;;;;;;;;;;;;;7361590;19;1280;-64
2023/05/11 14:28:49;;;;;;;;;;;;;;;;;;7366511;19;755;-64
2023/05/11 14:31:17;;;;;;;;;;;;;;;;;;7366115;19;857;-64
2023/05/11 14:33:45;;;;;;;;;;;;;;;;;;7363945;19;1853;-64
2023/05/11 14:36:14;;;;;;;;;;;;;;;;;;7363409;19;1259;-65
2023/05/11 14:38:42;;;;;;;;;;;;;;;;;;7365701;19;821;-65
2023/05/11 14:41:11;;;;;;;;;;;;;;;;;;7366030;19;849;-65
2023/05/11 14:43:39;;;;;;;;;;;;;;;;;;7366739;19;993;-66
2023/05/11 14:46:08;;;;;;;;;;;;;;;;;;7362694;19;1219;-66
2023/05/11 14:48:36;;;;;;;;;;;;;;;;;;7365054;19;806;-64
2023/05/11 14:51:04;;;;;;;;;;;;;;;;;;7366464;19;850;-68
2023/05/11 14:53:32;;;;;;;;;;;;;;;;;;7363753;19;1875;-68
2023/05/11 14:56:00;;;;;;;;;;;;;;;;;;7364273;19;1355;-68
2023/05/11 14:58:28;;;;;;;;;;;;;;;;;;7365941;19;1440;-67
2023/05/11 15:00:56;;;;;;;;;;;;;;;;;;7369615;19;1635;-67
2023/05/11 15:03:25;;;;;;;;;;;;;;;;;;7369118;19;2046;-69
2023/05/11 15:05:53;;;;;;;;;;;;;;;;;;7364061;19;1246;-69
2023/05/11 15:08:21;;;;;;;;;;;;;;;;;;7368423;19;1463;-68
2023/05/11 15:10:49;;;;;;;;;;;;;;;;;;7369656;19;1800;-71
2023/05/11 15:13:17;;;;;;;;;;;;;;;;;;7364092;19;1853;-70
2023/05/11 15:15:45;;;;;;;;;;;;;;;;;;7362506;19;1334;-71
2023/05/11 15:18:15;;;;;;;;;;;;;;;;;;7368519;19;1827;-69
2023/05/11 15:20:43;;;;;;;;;;;;;;;;;;7366175;19;902;-69
2023/05/11 15:23:15;;;;;;;;;;;;;;;;;;7367425;19;1812;-71
2023/05/11 15:25:43;;;;;;;;;;;;;;;;;;7365717;19;1589;-69
2023/05/11 15:28:12;;;;;;;;;;;;;;;;;;7367850;19;1796;-71
2023/05/11 15:30:40;;;;;;;;;;;;;;;;;;7368496;19;1587;-71
2023/05/11 15:33:09;;;;;;;;;;;;;;;;;;7363262;19;1854;-68
2023/05/11 15:35:37;;;;;;;;;;;;;;;;;;7360862;19;1262;-69
2023/05/11 15:38:05;;;;;;;;;;;;;;;;;;7367046;19;1547;-69
2023/05/11 15:40:33;;;;;;;;;;;;;;;;;;7365832;19;854;-67
2023/05/11 15:43:02;;;;;;;;;;;;;;;;;;7365166;19;1581;-68
2023/05/11 15:45:30;;;;;;;;;;;;;;;;;;7366782;19;1823;-68
2023/05/11 15:47:58;;;;;;;;;;;;;;;;;;7367103;19;1780;-69
2023/05/11 15:50:26;;;;;;;;;;;;;;;;;;7368370;19;1801;-69
2023/05/11 15:52:55;;;;;;;;;;;;;;;;;;7364968;19;1842;-68
2023/05/11 15:55:24;;;;;;;;;;;;;;;;;;7364956;19;1710;-68
2023/05/11 15:57:52;;;;;;;;;;;;;;;;;;7364116;19;1890;-68
2023/05/11 16:00:20;;;;;;;;;;;;;;;;;;7366129;19;1564;-69
2023/05/11 16:02:48;;;;;;;;;;;;;;;;;;7367385;19;1564;-69
2023/05/11 16:05:16;;;;;;;;;;;;;;;;;;7363445;19;1274;-69
2023/05/11 16:07:44;;;;;;;;;;;;;;;;;;7363691;19;1538;-68
2023/05/11 16:10:13;;;;;;;;;;;;;;;;;;7366393;19;1772;-72
2023/05/11 16:12:41;;;;;;;;;;;;;;;;;;7364980;19;1845;-71
2023/05/11 16:15:09;;;;;;;;;;;;;;;;;;7365573;19;1774;-71
2023/05/11 16:17:37;;;;;;;;;;;;;;;;;;7363755;19;1800;-71
2023/05/11 16:20:05;;;;;;;;;;;;;;;;;;7368191;19;1847;-70
2023/05/11 16:22:34;;;;;;;;;;;;;;;;;;7363325;19;843;-69
2023/05/11 16:25:03;;;;;;;;;;;;;;;;;;7367212;19;1514;-69
2023/05/11 16:27:31;;;;;;;;;;;;;;;;;;7366101;19;1533;-70
2023/05/11 16:29:59;;;;;;;;;;;;;;;;;;7366240;19;1620;-68
2023/05/11 16:32:27;;;;;;;;;;;;;;;;;;7363993;19;1849;-68
2023/05/11 16:34:56;;;;;;;;;;;;;;;;;;7362460;19;1340;-70
2023/05/11 16:37:24;;;;;;;;;;;;;;;;;;7366687;19;1576;-68
2023/05/11 16:39:52;;;;;;;;;;;;;;;;;;7362572;19;881;-69
2023/05/11 16:42:20;;;;;;;;;;;;;;;;;;7366709;19;1413;-70
2023/05/11 16:44:48;;;;;;;;;;;;;;;;;;7362208;19;1558;-69
2023/05/11 16:47:16;;;;;;;;;;;;;;;;;;7371090;19;855;-70
2023/05/11 16:49:44;;;;;;;;;;;;;;;;;;7372730;19;1497;-69
2023/05/11 16:52:13;;;;;;;;;;;;;;;;;;7370347;19;1125;-69
2023/05/11 16:54:41;;;;;;;;;;;;;;;;;;7367067;19;1853;-71
2023/05/11 16:57:09;;;;;;;;;;;;;;;;;;7369137;19;759;-68
2023/05/11 16:59:37;;;;;;;;;;;;;;;;;;7372501;19;855;-69
2023/05/11 17:02:05;;;;;;;;;;;;;;;;;;7369311;19;784;-69
2023/05/11 17:04:33;;;;;;;;;;;;;;;;;;7369237;19;1258;-69
2023/05/11 17:07:01;;;;;;;;;;;;;;;;;;7369961;19;765;-69
2023/05/11 17:09:30;;;;;;;;;;;;;;;;;;7368988;19;866;-70
2023/05/11 17:11:58;;;;;;;;;;;;;;;;;;7372830;19;1087;-69
2023/05/11 17:14:26;;;;;;;;;;;;;;;;;;7366787;19;1844;-70
2023/05/11 17:16:54;;;;;;;;;;;;;;;;;;7369326;19;735;-69